Time;durP1;ratioP1;P1;durP2;ratioP2;P2;SDS_P1;SDS_P2;PMS_P1;PMS_P2;Temp;Humidity;BMP_temperature;BMP_pressure;BME280_temperature;BME280_humidity;BME280_pressure;Samples;Min_cycle;Max_cycle;Signal;HPM_P1;HPM_P2
2021/06/07 00:01:28;;;;;;;13.93;10.90;;;17.40;99.90;;;;;;5063422;28;20477;-86
2021/06/07 00:03:54;;;;;;;15.60;11.90;;;17.40;99.90;;;;;;5066651;28;20055;-86
2021/06/07 00:06:20;;;;;;;17.17;11.73;;;17.40;99.90;;;;;;5052721;28;20029;-86
2021/06/07 00:08:46;;;;;;;16.13;10.77;;;17.40;99.90;;;;;;5051286;28;20029;-86
2021/06/07 00:11:13;;;;;;;13.75;10.48;;;17.40;99.90;;;;;;5052005;28;20478;-86
2021/06/07 00:13:40;;;;;;;14.50;10.90;;;17.40;99.90;;;;;;5052205;28;20028;-86
2021/06/07 00:16:06;;;;;;;14.57;10.75;;;17.40;99.90;;;;;;5052224;28;20033;-86
2021/06/07 00:18:33;;;;;;;14.32;10.75;;;17.40;99.90;;;;;;5050542;28;20035;-86
2021/06/07 00:21:06;;;;;;;16.02;10.80;;;17.40;99.90;;;;;;5050137;28;20025;-86
2021/06/07 00:23:31;;;;;;;13.65;10.40;;;17.40;99.90;;;;;;5050615;28;20491;-86
2021/06/07 00:25:57;;;;;;;14.40;10.63;;;17.40;99.90;;;;;;5050775;28;20053;-86
2021/06/07 00:28:23;;;;;;;13.63;10.68;;;17.30;99.90;;;;;;5050542;28;20086;-86
2021/06/07 00:30:49;;;;;;;16.88;11.75;;;17.30;99.90;;;;;;5049884;28;20033;-86
2021/06/07 00:33:15;;;;;;;15.52;11.57;;;17.30;99.90;;;;;;5051659;28;20025;-86
2021/06/07 00:35:41;;;;;;;13.00;10.75;;;17.30;99.90;;;;;;5050529;28;20033;-86
2021/06/07 00:38:07;;;;;;;16.05;10.50;;;17.30;99.90;;;;;;5051917;28;20497;-86
2021/06/07 00:40:34;;;;;;;17.10;11.55;;;17.20;99.90;;;;;;5049700;28;20033;-86
2021/06/07 00:43:00;;;;;;;14.77;10.85;;;17.20;99.90;;;;;;5050285;28;20029;-86
2021/06/07 00:45:28;;;;;;;16.15;10.82;;;17.20;99.90;;;;;;5050451;28;20037;-86
2021/06/07 00:47:56;;;;;;;14.10;10.80;;;17.20;99.90;;;;;;5051740;28;20028;-86
2021/06/07 00:50:25;;;;;;;16.35;11.43;;;17.30;99.90;;;;;;5049970;28;20036;-86
2021/06/07 00:53:01;;;;;;;17.50;12.40;;;17.30;99.90;;;;;;5050479;28;20390;-86
2021/06/07 00:55:31;;;;;;;14.52;11.20;;;17.20;99.90;;;;;;5051404;28;20112;-86
2021/06/07 00:57:58;;;;;;;15.75;10.98;;;17.20;99.90;;;;;;5058483;28;20088;-86
2021/06/07 01:00:25;;;;;;;17.20;11.52;;;17.20;99.90;;;;;;5058086;28;20028;-86
2021/06/07 01:02:52;;;;;;;16.58;11.85;;;17.20;99.90;;;;;;5057824;28;20381;-86
2021/06/07 01:05:18;;;;;;;17.63;11.50;;;17.20;99.90;;;;;;5054292;28;20033;-86
2021/06/07 01:07:44;;;;;;;15.43;12.30;;;17.20;99.90;;;;;;5054145;28;20021;-86
2021/06/07 01:10:10;;;;;;;17.15;12.02;;;17.20;99.90;;;;;;5053706;28;20027;-86
2021/06/07 01:12:35;;;;;;;17.27;11.70;;;17.20;99.90;;;;;;5053785;28;20074;-86
2021/06/07 01:15:03;;;;;;;17.27;13.00;;;17.20;99.90;;;;;;5053979;28;20078;-86
2021/06/07 01:17:28;;;;;;;20.70;13.15;;;17.20;99.90;;;;;;5053931;28;20052;-86
2021/06/07 01:19:54;;;;;;;18.58;12.45;;;17.20;99.90;;;;;;5055011;28;20110;-86
2021/06/07 01:22:20;;;;;;;17.77;12.52;;;17.20;99.90;;;;;;5054951;28;20078;-86
2021/06/07 01:24:46;;;;;;;19.23;13.68;;;17.20;99.90;;;;;;5053723;28;20029;-86
2021/06/07 01:27:12;;;;;;;19.30;13.38;;;17.20;99.90;;;;;;5053636;28;20021;-86
2021/06/07 01:29:38;;;;;;;15.60;11.65;;;17.20;99.90;;;;;;5053102;28;20075;-86
2021/06/07 01:32:04;;;;;;;19.40;12.85;;;17.20;99.90;;;;;;5053541;28;20438;-86
2021/06/07 01:34:31;;;;;;;17.30;12.48;;;17.20;99.90;;;;;;5053529;28;20047;-86
2021/06/07 01:36:56;;;;;;;19.33;13.07;;;17.20;99.90;;;;;;5054811;28;20060;-86
2021/06/07 01:39:27;;;;;;;18.45;12.60;;;17.20;99.90;;;;;;5052916;28;20442;-86
2021/06/07 01:41:53;;;;;;;19.30;13.73;;;17.20;99.90;;;;;;5054380;28;20056;-86
2021/06/07 01:44:19;;;;;;;17.80;13.48;;;17.10;99.90;;;;;;5054636;28;20021;-86
2021/06/07 01:46:44;;;;;;;20.45;13.88;;;17.20;99.90;;;;;;5054693;28;20025;-86
2021/06/07 01:49:11;;;;;;;18.63;13.50;;;17.20;99.90;;;;;;5052722;28;20039;-86
2021/06/07 01:51:36;;;;;;;23.35;13.60;;;17.20;99.90;;;;;;5053154;28;20021;-86
2021/06/07 01:54:02;;;;;;;19.65;13.68;;;17.20;99.90;;;;;;5053356;28;20082;-86
2021/06/07 01:56:28;;;;;;;20.42;13.35;;;17.20;99.90;;;;;;5054250;28;20025;-86
2021/06/07 01:58:54;;;;;;;19.75;13.48;;;17.10;99.90;;;;;;5053694;28;20025;-85
2021/06/07 02:01:21;;;;;;;18.30;13.13;;;17.20;99.90;;;;;;5054196;28;20041;-86
2021/06/07 02:03:48;;;;;;;19.98;13.38;;;17.20;99.90;;;;;;5054331;28;20032;-86
2021/06/07 02:06:18;;;;;;;19.63;13.65;;;17.20;99.90;;;;;;5053007;28;20067;-86
2021/06/07 02:08:44;;;;;;;23.48;14.27;;;17.10;99.90;;;;;;5053849;28;20033;-86
2021/06/07 02:11:13;;;;;;;20.23;13.75;;;17.10;99.90;;;;;;5051938;28;20029;-86
2021/06/07 02:13:39;;;;;;;24.52;15.15;;;17.10;99.90;;;;;;5053310;28;20118;-86
2021/06/07 02:16:24;;;;;;;22.45;15.43;;;17.00;99.90;;;;;;5053044;28;20025;-85
2021/06/07 02:18:51;;;;;;;21.45;14.45;;;17.10;99.90;;;;;;5053666;28;20553;-86
2021/06/07 02:21:19;;;;;;;20.30;15.07;;;17.00;99.90;;;;;;5052329;28;20031;-86
2021/06/07 02:23:46;;;;;;;22.77;15.27;;;17.00;99.90;;;;;;5053953;28;20029;-86
2021/06/07 02:26:13;;;;;;;23.17;15.07;;;17.00;99.90;;;;;;5053882;28;20056;-86
2021/06/07 02:28:44;;;;;;;26.98;15.85;;;17.00;99.90;;;;;;5052604;28;20121;-86
2021/06/07 02:31:10;;;;;;;22.52;15.38;;;17.00;99.90;;;;;;5053193;28;20091;-86
2021/06/07 02:33:36;;;;;;;23.92;16.58;;;17.00;99.90;;;;;;5052548;28;20021;-86
2021/06/07 02:36:02;;;;;;;19.52;14.25;;;16.90;99.90;;;;;;5052357;28;20025;-85
2021/06/07 02:38:27;;;;;;;21.35;15.13;;;16.90;99.90;;;;;;5053607;28;20028;-86
2021/06/07 02:40:53;;;;;;;21.42;14.50;;;16.90;99.90;;;;;;5051595;28;20033;-86
2021/06/07 02:43:19;;;;;;;21.80;15.07;;;16.90;99.90;;;;;;5053496;28;20525;-86
2021/06/07 02:45:45;;;;;;;24.25;15.45;;;17.00;99.90;;;;;;5052261;28;20052;-86
2021/06/07 02:48:10;;;;;;;21.08;14.30;;;16.90;99.90;;;;;;5053955;28;20021;-86
2021/06/07 02:50:42;;;;;;;21.25;14.80;;;16.90;99.90;;;;;;5051512;28;20025;-86
2021/06/07 02:53:08;;;;;;;24.30;15.55;;;16.90;99.90;;;;;;5053347;28;20021;-85
2021/06/07 02:55:54;;;;;;;21.85;13.93;;;16.80;99.90;;;;;;5051943;28;20061;-86
2021/06/07 02:58:22;;;;;;;24.95;14.32;;;16.90;99.50;;;;;;5052912;28;20517;-86
2021/06/07 03:00:54;;;;;;;23.42;14.65;;;16.90;99.50;;;;;;5052631;28;20044;-86
2021/06/07 03:03:20;;;;;;;20.48;13.68;;;16.90;99.50;;;;;;5053160;28;20021;-86
2021/06/07 03:05:48;;;;;;;20.25;12.93;;;16.90;99.40;;;;;;5051859;28;20021;-86
2021/06/07 03:08:17;;;;;;;21.13;13.35;;;16.90;99.20;;;;;;5051731;28;20029;-86
2021/06/07 03:10:47;;;;;;;21.98;13.52;;;16.80;98.80;;;;;;5051130;28;20115;-86
2021/06/07 03:13:14;;;;;;;18.90;12.30;;;16.80;99.20;;;;;;5053112;28;20499;-86
2021/06/07 03:15:40;;;;;;;24.27;13.23;;;16.80;99.20;;;;;;5051681;28;20035;-86
2021/06/07 03:18:07;;;;;;;21.17;12.35;;;16.80;99.10;;;;;;5051622;28;20033;-86
2021/06/07 03:20:34;;;;;;;16.80;12.55;;;16.80;99.20;;;;;;5050852;28;20025;-86
2021/06/07 03:23:03;;;;;;;21.48;12.93;;;16.70;99.20;;;;;;5053619;28;20052;-86
2021/06/07 03:25:29;;;;;;;18.35;11.68;;;16.80;99.10;;;;;;5052216;28;20074;-86
2021/06/07 03:27:56;;;;;;;16.77;12.55;;;16.80;99.40;;;;;;5052807;28;20029;-86
2021/06/07 03:30:22;;;;;;;19.02;12.35;;;16.70;99.40;;;;;;5050876;28;20065;-86
2021/06/07 03:32:48;;;;;;;20.92;11.88;;;16.80;99.40;;;;;;5051867;28;20028;-86
2021/06/07 03:35:16;;;;;;;21.75;12.98;;;16.80;99.40;;;;;;5053543;28;20029;-86
2021/06/07 03:37:42;;;;;;;20.08;13.60;;;16.80;99.30;;;;;;5051941;28;20025;-86
2021/06/07 03:40:11;;;;;;;19.60;12.73;;;16.80;99.40;;;;;;5052882;28;20021;-86
2021/06/07 03:42:37;;;;;;;19.75;12.40;;;16.80;99.40;;;;;;5051627;28;20040;-85
2021/06/07 03:45:05;;;;;;;22.77;13.13;;;16.80;99.40;;;;;;5052075;28;20092;-86
2021/06/07 03:47:31;;;;;;;19.73;13.88;;;16.80;99.40;;;;;;5051997;28;20082;-85
2021/06/07 03:49:56;;;;;;;21.25;13.68;;;16.80;99.40;;;;;;5052509;28;20032;-85
2021/06/07 03:52:22;;;;;;;22.13;14.25;;;16.80;99.60;;;;;;5053225;28;20098;-86
2021/06/07 03:54:48;;;;;;;22.20;14.27;;;16.80;99.70;;;;;;5053838;28;20488;-85
2021/06/07 03:57:13;;;;;;;21.90;13.93;;;16.80;99.90;;;;;;5054311;28;20072;-86
2021/06/07 03:59:39;;;;;;;22.77;14.40;;;16.80;99.90;;;;;;5053375;28;20036;-86
2021/06/07 04:02:08;;;;;;;27.27;16.73;;;16.80;99.90;;;;;;5052513;28;20036;-85
2021/06/07 04:04:34;;;;;;;23.23;15.40;;;16.80;99.90;;;;;;5052939;28;20052;-86
2021/06/07 04:07:00;;;;;;;23.83;15.50;;;16.70;99.90;;;;;;5054098;28;20025;-86
2021/06/07 04:09:27;;;;;;;24.27;16.40;;;16.70;99.90;;;;;;5053816;28;20031;-86
2021/06/07 04:11:52;;;;;;;23.25;15.70;;;16.70;99.90;;;;;;5054210;28;20041;-85
2021/06/07 04:14:18;;;;;;;22.05;14.90;;;16.70;99.90;;;;;;5054218;28;20389;-86
2021/06/07 04:16:44;;;;;;;24.40;16.23;;;16.70;99.90;;;;;;5053510;28;20029;-86
2021/06/07 04:19:09;;;;;;;22.35;15.40;;;16.70;99.90;;;;;;5051753;28;20033;-86
2021/06/07 04:21:38;;;;;;;29.83;16.35;;;16.70;99.90;;;;;;5052093;28;20021;-86
2021/06/07 04:24:04;;;;;;;25.42;16.48;;;16.70;99.90;;;;;;5051804;28;20024;-86
2021/06/07 04:26:30;;;;;;;23.35;16.52;;;16.70;99.90;;;;;;5051821;28;20030;-87
2021/06/07 04:28:55;;;;;;;24.80;16.15;;;16.70;99.90;;;;;;5052753;28;20405;-85
2021/06/07 04:31:21;;;;;;;26.15;17.00;;;16.70;99.90;;;;;;5057852;28;20033;-85
2021/06/07 04:33:46;;;;;;;24.42;15.88;;;16.70;99.90;;;;;;5058574;28;20029;-86
2021/06/07 04:36:12;;;;;;;25.65;16.98;;;16.70;99.90;;;;;;5058455;28;20087;-86
2021/06/07 04:38:38;;;;;;;24.35;16.85;;;16.70;99.90;;;;;;5060050;28;20064;-86
2021/06/07 04:41:03;;;;;;;25.77;16.33;;;16.70;99.90;;;;;;5057761;28;20107;-85
2021/06/07 04:43:29;;;;;;;23.70;15.82;;;16.70;99.90;;;;;;5058674;28;20025;-85
2021/06/07 04:45:55;;;;;;;25.15;17.40;;;16.70;99.90;;;;;;5060242;28;20461;-86
2021/06/07 04:48:20;;;;;;;26.95;17.40;;;16.70;99.90;;;;;;5059851;28;20489;-85
2021/06/07 04:50:46;;;;;;;26.77;17.30;;;16.70;99.90;;;;;;5059071;28;20029;-85
2021/06/07 04:53:12;;;;;;;25.83;17.23;;;16.60;99.90;;;;;;5057892;28;20036;-86
2021/06/07 04:55:56;;;;;;;25.40;16.45;;;16.70;99.90;;;;;;5059698;28;20029;-86
2021/06/07 04:58:28;;;;;;;24.95;16.30;;;16.70;99.90;;;;;;5058373;28;20033;-85
2021/06/07 05:01:07;;;;;;;23.05;15.65;;;16.60;99.90;;;;;;5057185;28;20496;-85
2021/06/07 05:03:33;;;;;;;21.80;15.18;;;16.70;99.90;;;;;;5057650;28;20025;-86
2021/06/07 05:06:01;;;;;;;25.60;16.80;;;16.60;99.90;;;;;;5057828;28;20040;-85
2021/06/07 05:08:28;;;;;;;28.45;17.42;;;16.70;99.90;;;;;;5058810;28;20122;-86
2021/06/07 05:10:55;;;;;;;27.50;16.33;;;16.60;99.90;;;;;;5057399;28;20033;-86
2021/06/07 05:13:21;;;;;;;22.15;15.93;;;16.60;99.90;;;;;;5057913;28;20036;-87
2021/06/07 05:16:47;;;;;;;21.30;14.77;;;16.60;99.90;;;;;;5059045;28;20423;-86
2021/06/07 05:19:13;;;;;;;23.40;15.65;;;16.70;99.90;;;;;;5000428;28;20045;-87
2021/06/07 05:21:39;;;;;;;21.88;14.77;;;16.70;99.90;;;;;;5023652;28;20044;-86
2021/06/07 05:24:04;;;;;;;25.60;16.35;;;16.70;99.90;;;;;;5058041;28;20028;-86
2021/06/07 05:26:30;;;;;;;23.73;17.23;;;16.80;99.90;;;;;;5057877;28;20469;-87
2021/06/07 05:28:56;;;;;;;25.75;15.20;;;16.80;99.90;;;;;;5056504;28;20500;-86
2021/06/07 05:31:24;;;;;;;24.17;15.30;;;16.80;99.90;;;;;;5056779;28;20029;-86
2021/06/07 05:33:50;;;;;;;24.87;14.80;;;16.80;99.90;;;;;;5058050;28;20033;-86
2021/06/07 05:36:16;;;;;;;19.52;14.55;;;16.80;99.90;;;;;;5058167;28;20482;-86
2021/06/07 05:38:41;;;;;;;26.63;16.63;;;16.80;99.90;;;;;;5056528;28;20405;-87
2021/06/07 05:41:07;;;;;;;22.17;15.77;;;16.80;99.80;;;;;;5056791;28;20033;-86
2021/06/07 05:43:33;;;;;;;24.15;15.05;;;16.70;99.90;;;;;;5054034;28;20416;-86
2021/06/07 05:45:59;;;;;;;22.40;15.57;;;16.70;99.90;;;;;;5053725;28;20036;-86
2021/06/07 05:48:25;;;;;;;20.17;14.40;;;16.70;99.90;;;;;;5053881;28;20030;-86
2021/06/07 05:50:51;;;;;;;23.38;15.82;;;16.70;99.90;;;;;;5052568;28;20036;-86
2021/06/07 05:53:18;;;;;;;21.10;15.95;;;16.70;99.90;;;;;;5053494;28;20418;-86
2021/06/07 05:55:45;;;;;;;27.70;17.48;;;16.70;99.90;;;;;;5053175;28;20452;-86
2021/06/07 05:58:18;;;;;;;21.48;15.57;;;16.70;99.90;;;;;;5053366;28;20040;-86
2021/06/07 06:00:46;;;;;;;20.67;15.85;;;16.80;99.90;;;;;;5054154;28;20525;-86
2021/06/07 06:03:12;;;;;;;23.07;14.60;;;16.80;99.90;;;;;;5054651;28;20032;-86
2021/06/07 06:05:38;;;;;;;22.00;15.40;;;16.80;99.80;;;;;;5053104;28;20025;-86
2021/06/07 06:08:05;;;;;;;18.58;14.25;;;16.80;99.90;;;;;;5054479;28;20029;-86
2021/06/07 06:10:32;;;;;;;21.80;14.85;;;16.90;99.90;;;;;;5052839;28;20500;-86
2021/06/07 06:12:57;;;;;;;22.00;15.18;;;16.80;99.70;;;;;;5054576;28;20029;-86
2021/06/07 06:15:24;;;;;;;26.25;17.48;;;16.80;99.60;;;;;;5057579;28;20063;-86
2021/06/07 06:17:51;;;;;;;30.40;19.58;;;16.80;99.60;;;;;;5057340;28;20037;-86
2021/06/07 06:20:17;;;;;;;40.70;24.52;;;16.70;99.70;;;;;;5056040;28;20025;-86
2021/06/07 06:22:45;;;;;;;40.42;25.25;;;16.70;99.80;;;;;;5052812;28;20025;-86
2021/06/07 06:25:11;;;;;;;38.20;25.38;;;16.60;99.90;;;;;;5052851;28;20060;-86
2021/06/07 06:27:38;;;;;;;37.17;23.85;;;16.70;99.90;;;;;;5052842;28;20094;-86
2021/06/07 06:30:08;;;;;;;40.35;25.90;;;16.70;99.90;;;;;;5053990;28;20447;-86
2021/06/07 06:32:34;;;;;;;43.28;25.88;;;16.70;99.90;;;;;;5053766;28;20036;-86
2021/06/07 06:35:00;;;;;;;39.38;24.77;;;16.60;99.90;;;;;;5052606;28;20036;-86
2021/06/07 06:37:26;;;;;;;48.88;28.52;;;16.70;99.90;;;;;;5052363;28;20091;-86
2021/06/07 06:39:51;;;;;;;42.60;26.88;;;16.80;99.90;;;;;;5053418;28;20437;-86
2021/06/07 06:42:17;;;;;;;48.92;29.67;;;16.90;99.90;;;;;;5052217;28;20037;-86
2021/06/07 06:44:42;;;;;;;58.95;34.33;;;16.90;99.60;;;;;;5052420;28;20460;-86
2021/06/07 06:47:08;;;;;;;50.08;30.63;;;16.90;99.80;;;;;;5052432;28;20386;-86
2021/06/07 06:49:36;;;;;;;51.05;30.77;;;17.00;99.90;;;;;;5051895;28;20475;-86
2021/06/07 06:52:01;;;;;;;48.40;29.52;;;17.10;99.70;;;;;;5052099;28;20029;-86
2021/06/07 06:54:27;;;;;;;47.30;29.67;;;17.10;99.70;;;;;;5050987;28;20397;-86
2021/06/07 06:56:53;;;;;;;51.05;30.42;;;17.20;99.60;;;;;;5053719;28;20047;-86
2021/06/07 06:59:18;;;;;;;52.22;32.47;;;17.20;99.60;;;;;;5052879;28;20111;-87
2021/06/07 07:01:44;;;;;;;52.35;32.03;;;17.10;99.50;;;;;;5053200;28;20025;-86
2021/06/07 07:04:10;;;;;;;46.40;31.08;;;17.10;99.60;;;;;;5053264;28;20025;-86
2021/06/07 07:06:36;;;;;;;49.65;31.00;;;17.10;99.80;;;;;;5054598;28;20025;-86
2021/06/07 07:09:04;;;;;;;48.28;31.73;;;17.20;99.90;;;;;;5051698;28;20029;-86
2021/06/07 07:11:29;;;;;;;48.95;31.00;;;17.30;99.70;;;;;;5051755;28;20060;-86
2021/06/07 07:13:55;;;;;;;39.83;27.08;;;17.30;99.60;;;;;;5051801;28;20089;-86
2021/06/07 07:16:21;;;;;;;36.83;23.95;;;17.30;99.40;;;;;;5051774;28;20029;-86
2021/06/07 07:18:46;;;;;;;38.83;27.27;;;17.30;99.40;;;;;;5051443;28;20078;-87
2021/06/07 07:21:12;;;;;;;36.50;26.63;;;17.40;99.00;;;;;;5051388;28;20031;-87
2021/06/07 07:23:38;;;;;;;36.97;25.13;;;17.40;98.90;;;;;;5051583;28;20367;-86
2021/06/07 07:26:03;;;;;;;33.30;24.15;;;17.40;99.20;;;;;;5051628;28;20037;-86
2021/06/07 07:28:29;;;;;;;28.67;21.73;;;17.30;98.90;;;;;;5054191;28;20033;-87
2021/06/07 07:30:55;;;;;;;24.88;18.67;;;17.40;99.10;;;;;;5052671;28;20120;-86
2021/06/07 07:33:21;;;;;;;32.17;24.20;;;17.50;99.10;;;;;;5051673;28;20037;-87
2021/06/07 07:35:48;;;;;;;30.15;22.83;;;17.50;99.00;;;;;;5051795;28;20029;-86
2021/06/07 07:38:13;;;;;;;35.33;26.20;;;17.60;98.90;;;;;;5051818;28;20040;-87
2021/06/07 07:40:41;;;;;;;31.08;24.80;;;17.60;99.10;;;;;;5050993;28;20028;-87
2021/06/07 07:43:08;;;;;;;26.05;20.48;;;17.60;98.80;;;;;;5051703;28;20473;-86
2021/06/07 07:45:33;;;;;;;23.33;18.92;;;17.70;98.60;;;;;;5051444;28;20500;-86
2021/06/07 07:48:02;;;;;;;21.35;15.93;;;17.70;98.50;;;;;;5052678;28;20037;-86
2021/06/07 07:50:29;;;;;;;;;;;17.80;98.40;;;;;;5052944;28;20029;-87
2021/06/07 07:52:55;;;;;;;25.02;17.83;;;17.90;98.30;;;;;;5052647;28;19905;-86
2021/06/07 07:55:26;;;;;;;18.40;14.20;;;17.90;98.00;;;;;;5052514;28;20076;-87
2021/06/07 07:57:53;;;;;;;22.52;15.00;;;17.90;98.00;;;;;;5052419;28;20025;-86
2021/06/07 08:00:22;;;;;;;16.63;13.50;;;17.90;97.50;;;;;;5050963;28;20055;-86
2021/06/07 08:02:47;;;;;;;16.35;12.63;;;17.90;97.70;;;;;;5051047;28;20036;-87
2021/06/07 08:05:13;;;;;;;17.00;13.23;;;17.90;97.70;;;;;;5050822;28;20433;-87
2021/06/07 08:07:39;;;;;;;20.05;15.63;;;17.90;97.80;;;;;;5051295;28;20045;-87
2021/06/07 08:10:06;;;;;;;16.23;13.43;;;17.90;98.00;;;;;;5054293;28;20493;-87
2021/06/07 08:12:32;;;;;;;22.50;15.95;;;18.00;98.00;;;;;;5057063;28;20478;-87
2021/06/07 08:14:58;;;;;;;20.73;14.65;;;18.10;97.80;;;;;;5053584;28;20090;-87
2021/06/07 08:17:24;;;;;;;16.27;12.57;;;18.10;98.20;;;;;;5052032;28;20401;-86
2021/06/07 08:19:50;;;;;;;17.83;12.85;;;18.10;97.60;;;;;;5052781;28;20025;-87
2021/06/07 08:22:17;;;;;;;15.40;11.10;;;18.10;97.40;;;;;;5052865;28;20032;-87
2021/06/07 08:24:43;;;;;;;13.45;10.50;;;18.10;97.50;;;;;;5052672;28;20028;-87
2021/06/07 08:27:08;;;;;;;18.15;13.15;;;18.10;97.50;;;;;;5051076;28;20405;-86
2021/06/07 08:29:34;;;;;;;17.05;12.27;;;18.10;96.80;;;;;;5050579;28;20021;-87
2021/06/07 08:31:59;;;;;;;13.65;9.90;;;18.00;97.00;;;;;;5051845;28;20032;-87
2021/06/07 08:34:25;;;;;;;17.20;11.95;;;18.00;97.10;;;;;;5050812;28;20112;-86
2021/06/07 08:36:51;;;;;;;16.35;11.38;;;17.90;96.90;;;;;;5052314;28;20059;-86
2021/06/07 08:39:17;;;;;;;13.40;10.07;;;17.90;97.30;;;;;;5050813;28;20079;-87
2021/06/07 08:41:43;;;;;;;11.40;9.32;;;18.00;97.40;;;;;;5051316;28;20583;-87
2021/06/07 08:44:08;;;;;;;10.25;8.00;;;18.00;96.90;;;;;;5050874;28;20482;-87
2021/06/07 08:46:34;;;;;;;15.07;10.80;;;18.00;96.90;;;;;;5051583;28;20021;-87
2021/06/07 08:49:00;;;;;;;13.63;10.25;;;18.00;96.90;;;;;;5052522;28;20028;-87
2021/06/07 08:51:25;;;;;;;12.63;9.80;;;18.10;97.20;;;;;;5063744;28;20497;-87
2021/06/07 08:53:51;;;;;;;13.98;10.82;;;18.10;97.20;;;;;;5063300;28;20029;-87
2021/06/07 08:56:18;;;;;;;17.67;11.20;;;18.10;97.20;;;;;;5068172;28;20060;-86
2021/06/07 08:58:46;;;;;;;14.90;10.65;;;18.10;97.20;;;;;;5068907;28;20094;-86
2021/06/07 09:01:12;;;;;;;16.33;11.13;;;18.10;97.00;;;;;;5060648;28;20024;-86
2021/06/07 09:03:38;;;;;;;15.10;11.20;;;18.10;96.90;;;;;;5051986;28;20025;-86
2021/06/07 09:06:04;;;;;;;17.48;11.48;;;18.10;96.60;;;;;;5051867;28;20032;-87
2021/06/07 09:08:35;;;;;;;11.15;8.93;;;18.00;96.90;;;;;;5051924;28;20082;-87
2021/06/07 09:11:09;;;;;;;15.38;11.65;;;18.00;97.20;;;;;;5050369;28;20021;-86
2021/06/07 09:13:35;;;;;;;11.88;9.30;;;18.00;97.10;;;;;;5052516;28;20025;-87
2021/06/07 09:16:01;;;;;;;12.20;8.90;;;18.10;97.20;;;;;;5058646;28;20032;-87
2021/06/07 09:18:37;;;;;;;15.05;9.20;;;18.10;97.20;;;;;;5057747;28;20063;-86
2021/06/07 09:21:12;;;;;;;11.32;8.70;;;18.10;97.10;;;;;;5058509;28;20020;-87
2021/06/07 09:23:41;;;;;;;10.73;7.90;;;18.10;97.20;;;;;;5059286;28;20053;-86
2021/06/07 09:26:32;;;;;;;10.40;8.63;;;18.10;97.10;;;;;;5057674;28;20485;-86
2021/06/07 09:29:01;;;;;;;14.98;9.63;;;18.10;96.90;;;;;;5055941;28;20032;-87
2021/06/07 09:31:33;;;;;;;10.77;8.70;;;18.10;96.60;;;;;;5057127;28;20070;-87
2021/06/07 09:34:02;;;;;;;9.98;7.53;;;18.20;96.70;;;;;;5058731;28;20029;-87
2021/06/07 09:36:29;;;;;;;8.98;7.22;;;18.20;96.80;;;;;;5062123;28;20051;-87
2021/06/07 09:39:09;;;;;;;12.15;8.50;;;18.30;96.80;;;;;;5055018;28;20478;-87
2021/06/07 09:41:44;;;;;;;11.27;7.88;;;18.30;96.70;;;;;;5054386;28;20091;-86
2021/06/07 09:44:37;;;;;;;11.00;8.02;;;18.40;96.60;;;;;;5053875;28;20565;-87
2021/06/07 09:47:31;;;;;;;14.85;10.65;;;18.40;96.60;;;;;;5043817;28;20025;-87
2021/06/07 09:50:08;;;;;;;13.98;10.43;;;18.40;96.30;;;;;;5050406;28;20033;-87
2021/06/07 09:52:48;;;;;;;10.82;8.55;;;18.40;95.70;;;;;;5054881;28;20032;-87
2021/06/07 09:55:22;;;;;;;11.77;8.43;;;18.40;95.90;;;;;;5054766;28;20021;-87
2021/06/07 09:58:29;;;;;;;11.20;8.65;;;18.50;95.70;;;;;;5053689;28;20028;-86
2021/06/07 10:00:55;;;;;;;13.52;10.30;;;18.50;95.70;;;;;;5014132;28;20039;-86
2021/06/07 10:03:25;;;;;;;14.88;10.02;;;18.50;96.00;;;;;;5053318;28;20478;-87
2021/06/07 10:05:58;;;;;;;12.25;9.02;;;18.50;95.90;;;;;;5053205;28;20033;-86
2021/06/07 10:08:24;;;;;;;10.82;7.93;;;18.50;96.00;;;;;;5054425;28;20029;-87
2021/06/07 10:10:52;;;;;;;9.88;7.13;;;18.50;95.80;;;;;;5052583;28;20021;-86
2021/06/07 10:13:18;;;;;;;8.80;7.60;;;18.50;95.70;;;;;;5054127;28;20017;-87
2021/06/07 10:15:44;;;;;;;9.13;6.85;;;18.50;95.90;;;;;;5053210;28;20389;-87
2021/06/07 10:18:17;;;;;;;14.55;9.68;;;18.50;95.80;;;;;;5052947;28;20025;-87
2021/06/07 10:20:49;;;;;;;12.02;9.00;;;18.50;95.60;;;;;;5053384;28;20029;-87
2021/06/07 10:23:23;;;;;;;8.55;6.53;;;18.40;95.40;;;;;;5053114;28;20032;-87
2021/06/07 10:25:54;;;;;;;11.15;7.75;;;18.40;95.50;;;;;;5052743;28;20505;-87
2021/06/07 10:28:26;;;;;;;8.73;7.60;;;18.40;95.60;;;;;;5052642;28;20115;-87
2021/06/07 10:30:52;;;;;;;10.65;8.13;;;18.40;95.90;;;;;;5052036;28;20121;-87
2021/06/07 10:33:27;;;;;;;11.23;8.70;;;18.40;95.30;;;;;;5052519;28;20032;-87
2021/06/07 10:35:53;;;;;;;8.27;6.63;;;18.40;95.00;;;;;;5054225;28;20424;-86
2021/06/07 10:38:31;;;;;;;10.18;7.95;;;18.40;95.50;;;;;;5052818;28;20036;-86
2021/06/07 10:41:16;;;;;;;10.27;7.27;;;18.30;95.10;;;;;;5053438;28;20134;-86
2021/06/07 10:43:50;;;;;;;13.30;8.88;;;18.40;95.30;;;;;;5054029;28;20021;-87
2021/06/07 10:46:30;;;;;;;9.77;8.02;;;18.30;95.10;;;;;;5054192;28;20021;-87
2021/06/07 10:48:57;;;;;;;10.02;8.07;;;18.30;95.40;;;;;;5054840;28;20020;-86
2021/06/07 10:51:32;;;;;;;12.07;8.82;;;18.30;95.80;;;;;;5054124;28;20383;-86
2021/06/07 10:54:29;;;;;;;10.82;9.48;;;18.30;95.80;;;;;;5053748;28;20029;-86
2021/06/07 10:56:55;;;;;;;11.00;7.80;;;18.30;95.80;;;;;;5053643;28;20047;-87
2021/06/07 10:59:21;;;;;;;9.63;8.07;;;18.30;95.90;;;;;;5052513;28;20036;-86
2021/06/07 11:01:59;;;;;;;13.63;9.60;;;18.30;96.10;;;;;;5053173;28;20119;-86
2021/06/07 11:04:36;;;;;;;13.65;9.80;;;18.30;96.10;;;;;;5053003;28;20024;-86
2021/06/07 11:07:12;;;;;;;10.05;7.03;;;18.30;96.40;;;;;;5053331;28;20070;-86
2021/06/07 11:10:17;;;;;;;11.32;9.15;;;18.30;95.70;;;;;;5055105;28;20025;-85
2021/06/07 11:12:43;;;;;;;11.88;8.57;;;18.30;95.60;;;;;;5050188;28;20516;-85
2021/06/07 11:15:09;;;;;;;9.05;6.88;;;18.30;95.50;;;;;;5053333;28;20028;-86
2021/06/07 11:17:34;;;;;;;10.30;8.07;;;18.30;95.60;;;;;;5054772;28;20461;-86
2021/06/07 11:20:01;;;;;;;13.93;8.63;;;18.30;95.60;;;;;;5054183;28;20029;-86
2021/06/07 11:22:26;;;;;;;10.80;7.85;;;18.40;95.50;;;;;;5052681;28;20028;-86
2021/06/07 11:24:52;;;;;;;8.55;6.28;;;18.40;95.60;;;;;;5053747;28;20018;-86
2021/06/07 11:27:38;;;;;;;11.30;7.78;;;18.40;95.00;;;;;;5055947;28;20029;-86
2021/06/07 11:30:07;;;;;;;8.77;6.70;;;18.30;94.70;;;;;;5053330;28;20448;-86
2021/06/07 11:32:33;;;;;;;;;;;18.40;94.80;;;;;;5054947;28;20144;-86
2021/06/07 11:34:59;;;;;;;8.85;6.07;;;18.40;95.00;;;;;;5058748;28;19911;-86
2021/06/07 11:37:34;;;;;;;8.85;5.75;;;18.40;94.90;;;;;;5056275;28;20021;-86
2021/06/07 11:40:02;;;;;;;6.30;5.70;;;18.50;95.00;;;;;;5055511;28;20556;-85
2021/06/07 11:42:29;;;;;;;11.77;6.68;;;18.50;94.80;;;;;;5054596;28;20504;-86
2021/06/07 11:44:57;;;;;;;7.95;5.35;;;18.50;94.50;;;;;;5052304;28;20025;-85
2021/06/07 11:47:49;;;;;;;7.25;5.00;;;18.50;94.50;;;;;;5052354;28;20052;-85
2021/06/07 11:50:28;;;;;;;9.95;5.55;;;18.50;94.40;;;;;;5053266;28;20027;-85
2021/06/07 11:52:54;;;;;;;6.70;5.15;;;18.60;94.40;;;;;;5051555;28;20455;-87
2021/06/07 11:55:33;;;;;;;6.03;4.70;;;18.50;94.10;;;;;;5053294;28;20066;-86
2021/06/07 11:58:13;;;;;;;5.38;4.07;;;18.60;93.80;;;;;;5051962;28;20040;-87
2021/06/07 12:00:51;;;;;;;6.45;4.70;;;18.60;94.00;;;;;;5051363;28;20025;-86
2021/06/07 12:03:21;;;;;;;7.88;5.85;;;18.60;94.00;;;;;;5052049;28;20401;-86
2021/06/07 12:05:47;;;;;;;6.40;4.55;;;18.60;93.80;;;;;;5051447;28;20021;-87
2021/06/07 12:08:15;;;;;;;5.65;4.55;;;18.70;93.90;;;;;;5051574;28;20032;-87
2021/06/07 12:10:42;;;;;;;5.75;4.30;;;18.70;94.10;;;;;;5051181;28;20029;-88
2021/06/07 12:13:18;;;;;;;8.55;5.63;;;18.80;94.20;;;;;;5051645;28;20025;-86
2021/06/07 12:15:48;;;;;;;8.18;4.90;;;18.80;93.90;;;;;;5051911;28;20025;-87
2021/06/07 12:18:28;;;;;;;8.10;5.53;;;18.80;94.00;;;;;;5051989;28;20025;-87
2021/06/07 12:21:02;;;;;;;8.65;5.82;;;18.90;93.90;;;;;;5051037;28;20025;-86
2021/06/07 12:23:31;;;;;;;8.38;5.25;;;18.90;93.40;;;;;;5053202;28;20432;-87
2021/06/07 12:29:33;;;;;;;6.78;4.97;;;19.00;93.50;;;;;;5052481;28;20047;-86
2021/06/07 12:32:18;;;;;;;7.28;5.13;;;19.00;93.70;;;;;;5053326;28;20100;-86
2021/06/07 12:35:03;;;;;;;7.32;4.88;;;19.10;93.90;;;;;;5051366;28;20031;-86
2021/06/07 12:37:35;;;;;;;5.75;4.50;;;19.10;93.80;;;;;;5052596;28;20092;-86
2021/06/07 12:40:22;;;;;;;9.90;6.60;;;19.10;94.20;;;;;;5050804;28;20033;-86
2021/06/07 12:43:05;;;;;;;9.18;6.63;;;19.10;93.60;;;;;;5051412;28;20029;-86